Weather at Taylor Airport

Public forecast

Using degrees Fahrenheit for public forecast. Weather courtesy of forecast.io.

Closest aviation weather report (METAR) to Taylor Airport

Closest report is Olympia Regional Airport, 10.5 nm (19.4 km) WNW.

2024/04/22 12:54 (retrieved 55 minutes ago)

KOLM 221254Z AUTO 13004KT 10SM CLR 00/M01 A3024 RMK AO2 SLP240 T00001006

Closest aviation forecast (TAF) to Taylor Airport

Closest forecast is Olympia Regional Airport, 10.5 nm (19.4 km) WNW.

2024/04/22 12:30 (retrieved 1 hour ago)

TAF KOLM 221127Z 2212/2312 00000KT P6SM SKC FM221800 02007KT P6SM FEW200 FM230700 00000KT P6SM BKN250